createdAt,value
2018-07-04T00:01:14.489Z,20.10
2018-07-04T00:03:54.329Z,20.20
2018-07-04T00:06:34.166Z,20.20
2018-07-04T00:09:14.022Z,20.20
2018-07-04T00:11:53.787Z,20.30
2018-07-04T00:14:33.613Z,20.40
2018-07-04T00:17:13.381Z,20.40
2018-07-04T00:19:53.304Z,20.30
2018-07-04T00:22:33.079Z,20.20
2018-07-04T00:25:12.911Z,20.00
2018-07-04T00:27:52.744Z,20.10
2018-07-04T00:30:32.378Z,20.00
2018-07-04T00:33:12.271Z,20.00
2018-07-04T00:35:51.999Z,20.00
2018-07-04T00:38:31.939Z,20.10
2018-07-04T00:41:11.868Z,20.20
2018-07-04T00:43:51.667Z,20.20
2018-07-04T00:46:31.452Z,20.20
2018-07-04T00:49:11.314Z,20.30
2018-07-04T00:51:51.283Z,20.20
2018-07-04T00:54:30.978Z,20.10
2018-07-04T00:57:10.766Z,20.10
2018-07-04T00:59:50.626Z,20.00
2018-07-04T01:02:30.406Z,19.90
2018-07-04T01:05:10.188Z,19.70
2018-07-04T01:07:49.847Z,19.60
2018-07-04T01:10:29.514Z,19.60
2018-07-04T01:13:09.122Z,19.50
2018-07-04T01:15:49.053Z,19.60
2018-07-04T01:18:28.820Z,19.50
2018-07-04T01:21:13.403Z,19.60
2018-07-04T01:23:53.802Z,19.50
2018-07-04T01:26:34.274Z,19.60
2018-07-04T01:29:14.039Z,19.60
2018-07-04T01:31:53.726Z,19.70
2018-07-04T01:34:33.402Z,19.70
2018-07-04T01:37:13.250Z,19.70
2018-07-04T01:39:53.216Z,19.70
2018-07-04T01:42:33.032Z,19.50
2018-07-04T01:45:13.115Z,19.40
2018-07-04T01:47:53.992Z,19.40
2018-07-04T01:50:33.814Z,19.40
2018-07-04T01:53:13.631Z,19.30
2018-07-04T01:55:53.537Z,19.40
2018-07-04T01:58:33.340Z,19.30
2018-07-04T02:01:13.089Z,19.20
2018-07-04T02:03:52.823Z,19.20
2018-07-04T02:06:32.753Z,19.20
2018-07-04T02:09:12.660Z,19.20
2018-07-04T02:11:52.714Z,19.10
2018-07-04T02:14:32.708Z,19.10
2018-07-04T02:17:12.646Z,19.10
2018-07-04T02:19:52.443Z,19.00
2018-07-04T02:22:32.199Z,19.00
2018-07-04T02:25:11.918Z,18.80
2018-07-04T02:27:51.764Z,18.70
2018-07-04T02:30:31.603Z,18.60
2018-07-04T02:33:11.362Z,18.60
2018-07-04T02:40:58.958Z,18.50
2018-07-04T02:43:38.907Z,18.50
2018-07-04T02:46:23.994Z,18.40
2018-07-04T02:49:03.891Z,18.40
2018-07-04T02:51:43.849Z,18.30
2018-07-04T02:54:23.574Z,18.20
2018-07-04T02:57:03.433Z,18.20
2018-07-04T02:59:43.204Z,18.20
2018-07-04T03:02:23.048Z,18.30
2018-07-04T03:07:36.820Z,18.30
2018-07-04T03:10:16.706Z,18.30
2018-07-04T03:12:56.587Z,18.30
2018-07-04T03:15:36.246Z,18.30
2018-07-04T03:18:16.130Z,18.30
2018-07-04T03:20:56.003Z,18.20
2018-07-04T03:23:35.650Z,18.00
2018-07-04T03:26:15.487Z,17.90
2018-07-04T03:28:55.284Z,17.80
2018-07-04T03:31:35.230Z,17.70
2018-07-04T03:34:15.076Z,17.70
2018-07-04T03:36:54.779Z,17.70
2018-07-04T03:39:34.571Z,17.70
2018-07-04T03:42:14.417Z,17.60
2018-07-04T03:44:54.261Z,17.60
2018-07-04T03:47:34.008Z,17.60
2018-07-04T03:50:13.774Z,17.60
2018-07-04T03:52:53.542Z,17.80
2018-07-04T03:55:33.378Z,17.80
2018-07-04T03:58:13.443Z,17.80
2018-07-04T04:00:53.402Z,17.90
2018-07-04T04:03:33.218Z,17.90
2018-07-04T04:06:13.046Z,18.10
2018-07-04T04:08:52.622Z,18.10
2018-07-04T04:11:32.262Z,18.00
2018-07-04T04:14:12.019Z,18.10
2018-07-04T04:16:51.898Z,18.10
2018-07-04T04:19:33.484Z,18.20
2018-07-04T04:22:14.452Z,18.30
2018-07-04T04:24:55.665Z,18.50
2018-07-04T04:27:35.604Z,18.60
2018-07-04T04:30:15.522Z,18.80
2018-07-04T04:32:55.195Z,18.90
2018-07-04T04:35:34.951Z,19.10
2018-07-04T04:38:14.836Z,19.30
2018-07-04T04:40:54.637Z,19.50
2018-07-04T04:43:34.443Z,19.70
2018-07-04T04:46:14.200Z,19.90
2018-07-04T04:48:53.958Z,20.00
2018-07-04T04:51:33.898Z,20.10
2018-07-04T04:54:13.651Z,20.10
2018-07-04T04:56:53.386Z,20.10
2018-07-04T04:59:33.144Z,20.30
2018-07-04T05:02:13.029Z,20.40
2018-07-04T05:04:52.807Z,20.50
2018-07-04T05:07:32.615Z,20.60
2018-07-04T05:10:12.370Z,20.70
2018-07-04T05:12:52.329Z,20.90
2018-07-04T05:15:32.149Z,21.00
2018-07-04T05:18:12.069Z,21.00
2018-07-04T05:20:52.733Z,21.10
2018-07-04T05:23:32.437Z,21.20
2018-07-04T05:26:12.222Z,21.20
2018-07-04T05:28:52.129Z,21.30
2018-07-04T05:31:31.834Z,21.30
2018-07-04T05:34:11.629Z,21.30
2018-07-04T05:36:51.468Z,21.40
2018-07-04T05:39:31.351Z,21.50
2018-07-04T05:42:11.205Z,21.50
2018-07-04T05:44:50.966Z,21.60
2018-07-04T05:47:30.680Z,21.70
2018-07-04T05:50:10.474Z,21.80
2018-07-04T05:52:50.184Z,21.90
2018-07-04T05:55:30.107Z,22.00
2018-07-04T05:58:10.007Z,22.10
2018-07-04T06:00:49.828Z,22.20
2018-07-04T06:03:29.756Z,22.30
2018-07-04T06:06:09.666Z,22.40
2018-07-04T06:08:49.543Z,22.50
2018-07-04T06:11:29.216Z,22.60
2018-07-04T06:14:08.910Z,22.70
2018-07-04T06:16:48.559Z,22.90
2018-07-04T06:19:28.528Z,23.00
2018-07-04T06:22:08.372Z,23.20
2018-07-04T06:24:48.584Z,23.20
2018-07-04T06:27:28.393Z,23.40
2018-07-04T06:30:08.102Z,23.60
2018-07-04T06:32:47.940Z,23.80
2018-07-04T06:37:49.171Z,23.90
2018-07-04T06:40:16.620Z,24.10
2018-07-04T06:42:44.049Z,24.20
2018-07-04T06:45:11.472Z,24.30
2018-07-04T06:47:38.853Z,24.40
2018-07-04T06:50:06.255Z,24.60
2018-07-04T06:52:33.684Z,24.60
2018-07-04T06:55:01.088Z,24.80
2018-07-04T06:57:28.521Z,24.70
2018-07-04T06:59:55.928Z,24.70
2018-07-04T07:02:25.498Z,24.90
2018-07-04T07:05:05.212Z,25.00
2018-07-04T07:07:45.111Z,25.20
2018-07-04T07:10:24.872Z,25.20
2018-07-04T07:13:04.643Z,25.10
2018-07-04T07:15:44.261Z,25.00
2018-07-04T07:18:24.022Z,25.20
2018-07-04T07:21:04.000Z,25.30
2018-07-04T07:23:43.750Z,25.20
2018-07-04T07:26:23.707Z,25.20
2018-07-04T07:29:04.509Z,25.40
2018-07-04T07:31:44.423Z,25.60
2018-07-04T07:34:24.220Z,25.60
2018-07-04T07:37:04.059Z,25.60
2018-07-04T07:39:43.827Z,25.70
2018-07-04T07:42:23.606Z,25.70
2018-07-04T07:45:04.521Z,25.90
2018-07-04T07:47:44.454Z,26.00
2018-07-04T07:50:24.361Z,26.30
2018-07-04T07:53:04.257Z,26.40
2018-07-04T07:55:44.041Z,26.70
2018-07-04T07:58:23.791Z,26.80
2018-07-04T08:01:03.625Z,26.80
2018-07-04T08:03:43.327Z,27.00
2018-07-04T08:06:22.986Z,27.10
2018-07-04T08:09:02.808Z,27.20
2018-07-04T08:11:42.630Z,27.40
2018-07-04T08:14:22.463Z,27.50
2018-07-04T08:17:02.192Z,27.60
2018-07-04T08:19:42.162Z,27.70
2018-07-04T08:22:21.938Z,27.60
2018-07-04T08:25:01.806Z,27.90
2018-07-04T08:27:41.687Z,28.10
2018-07-04T08:30:21.440Z,28.30
2018-07-04T08:33:01.351Z,28.50
2018-07-04T08:35:41.141Z,28.60
2018-07-04T08:38:20.806Z,28.70
2018-07-04T08:41:00.699Z,29.00
2018-07-04T08:43:40.430Z,29.10
2018-07-04T08:46:20.360Z,29.40
2018-07-04T08:49:00.226Z,29.70
2018-07-04T08:51:40.160Z,29.90
2018-07-04T08:54:20.059Z,30.10
2018-07-04T08:57:00.055Z,30.20
2018-07-04T08:59:40.987Z,30.40
2018-07-04T09:02:21.022Z,30.50
2018-07-04T09:05:00.639Z,30.60
2018-07-04T09:07:40.536Z,30.70
2018-07-04T09:10:20.078Z,30.50
2018-07-04T09:12:59.751Z,30.70
2018-07-04T09:15:39.504Z,31.00
2018-07-04T09:18:19.425Z,31.20
2018-07-04T09:20:59.205Z,31.20
2018-07-04T09:23:38.982Z,31.30
2018-07-04T09:26:18.820Z,31.20
2018-07-04T09:31:32.810Z,31.20
2018-07-04T09:34:12.593Z,31.20
2018-07-04T09:36:52.535Z,31.50
2018-07-04T09:39:32.488Z,31.70
2018-07-04T09:42:12.428Z,31.90
2018-07-04T09:44:52.409Z,32.10
2018-07-04T09:47:32.348Z,32.40
2018-07-04T09:50:12.215Z,32.60
2018-07-04T09:52:52.058Z,32.60
2018-07-04T09:55:31.837Z,32.70
2018-07-04T09:58:11.658Z,32.70
2018-07-04T10:03:30.732Z,32.20
2018-07-04T10:06:10.484Z,31.80
2018-07-04T10:11:24.119Z,30.80
2018-07-04T10:14:03.895Z,30.70
2018-07-04T10:19:17.725Z,29.50
2018-07-04T10:21:57.710Z,29.00
2018-07-04T10:27:11.467Z,27.90
2018-07-04T10:29:51.343Z,27.40
2018-07-04T10:32:31.172Z,26.80
2018-07-04T10:35:10.777Z,26.30
2018-07-04T10:37:50.553Z,26.00
2018-07-04T10:40:30.488Z,25.60
2018-07-04T10:43:10.364Z,25.10
2018-07-04T10:45:50.195Z,24.90
2018-07-04T10:48:30.141Z,24.60
2018-07-04T10:51:09.904Z,24.30
2018-07-04T10:53:49.755Z,24.20
2018-07-04T10:56:29.442Z,24.00
2018-07-04T10:59:09.091Z,24.00
2018-07-04T11:01:48.799Z,23.80
2018-07-04T11:04:28.633Z,23.50
2018-07-04T11:07:08.359Z,23.50
2018-07-04T11:09:48.149Z,23.30
2018-07-04T11:12:27.996Z,23.20
2018-07-04T11:15:07.701Z,23.10
2018-07-04T11:17:47.406Z,23.00
2018-07-04T11:20:27.259Z,23.00
2018-07-04T11:23:07.171Z,23.00
2018-07-04T11:25:46.911Z,23.00
2018-07-04T11:28:26.657Z,23.00
2018-07-04T11:31:06.537Z,23.10
2018-07-04T11:33:46.537Z,23.10
2018-07-04T11:36:26.404Z,23.10
2018-07-04T11:39:06.051Z,23.00
2018-07-04T11:41:46.024Z,22.80
2018-07-04T11:44:25.894Z,22.50
2018-07-04T11:46:53.336Z,22.40
2018-07-04T11:49:20.723Z,22.50
2018-07-04T11:51:48.137Z,22.50
2018-07-04T11:54:15.634Z,22.60
2018-07-04T11:59:10.794Z,22.90
2018-07-04T12:01:38.229Z,23.00
2018-07-04T12:04:18.043Z,22.90
2018-07-04T12:06:57.953Z,23.00
2018-07-04T12:09:25.375Z,23.10
2018-07-04T12:11:52.808Z,23.20
2018-07-04T12:14:20.185Z,23.50
2018-07-04T12:16:47.620Z,23.90
2018-07-04T12:19:15.009Z,24.30
2018-07-04T12:21:42.478Z,24.60
2018-07-04T12:24:10.036Z,25.00
2018-07-04T12:26:37.460Z,25.30
2018-07-04T12:29:04.918Z,25.80
2018-07-04T12:31:32.638Z,26.30
2018-07-04T12:34:01.191Z,26.70
2018-07-04T12:36:28.656Z,26.80
2018-07-04T12:38:56.048Z,27.30
2018-07-04T12:41:23.489Z,27.60
2018-07-04T12:43:50.979Z,27.60
2018-07-04T12:46:18.436Z,28.00
2018-07-04T12:48:45.877Z,28.40
2018-07-04T12:51:13.311Z,28.60
2018-07-04T12:53:40.703Z,28.90
2018-07-04T12:56:21.597Z,29.10
2018-07-04T13:01:36.202Z,29.50
2018-07-04T13:04:16.585Z,29.80
2018-07-04T13:07:01.203Z,30.00
2018-07-04T13:09:41.103Z,29.90
2018-07-04T13:12:20.764Z,30.00
2018-07-04T13:15:00.527Z,30.20
2018-07-04T13:17:40.499Z,30.40
2018-07-04T13:20:20.335Z,30.30
2018-07-04T13:23:01.068Z,30.30
2018-07-04T13:25:40.935Z,30.70
2018-07-04T13:28:20.657Z,30.80
2018-07-04T13:31:04.714Z,30.70
2018-07-04T13:33:44.445Z,31.00
2018-07-04T13:36:27.603Z,31.10
2018-07-04T13:39:07.391Z,31.40
2018-07-04T13:41:48.117Z,31.50
2018-07-04T13:44:28.076Z,31.50
2018-07-04T13:47:09.725Z,31.40
2018-07-04T13:49:49.619Z,31.40
2018-07-04T13:52:29.343Z,31.60
2018-07-04T13:55:09.232Z,31.60
2018-07-04T13:57:49.001Z,31.40
2018-07-04T14:00:28.878Z,31.50
2018-07-04T14:03:08.785Z,31.50
2018-07-04T14:05:48.572Z,31.80
2018-07-04T14:08:28.402Z,31.70
2018-07-04T14:11:08.146Z,31.60
2018-07-04T14:13:49.015Z,31.70
2018-07-04T14:16:28.834Z,31.70
2018-07-04T14:19:08.486Z,31.60
2018-07-04T14:21:49.255Z,31.40
2018-07-04T14:24:29.217Z,31.40
2018-07-04T14:27:10.134Z,31.30
2018-07-04T14:32:24.019Z,31.20
2018-07-04T14:35:03.904Z,30.90
2018-07-04T14:37:44.817Z,30.80
2018-07-04T14:40:24.640Z,30.60
2018-07-04T14:43:04.533Z,30.50
2018-07-04T14:45:44.282Z,30.40
2018-07-04T14:48:24.089Z,30.10
2018-07-04T14:51:09.017Z,30.00
2018-07-04T14:53:49.003Z,29.80
2018-07-04T14:56:28.869Z,29.50
2018-07-04T14:59:09.648Z,29.30
2018-07-04T15:01:54.584Z,29.10
2018-07-04T15:04:34.503Z,28.90
2018-07-04T15:07:14.480Z,28.70
2018-07-04T15:09:54.284Z,28.30
2018-07-04T15:12:34.159Z,28.00
2018-07-04T15:15:13.905Z,27.90
2018-07-04T15:17:53.905Z,27.40
2018-07-04T15:20:33.733Z,27.40
2018-07-04T15:23:13.585Z,27.50
2018-07-04T15:25:54.277Z,27.60
2018-07-04T15:28:34.199Z,27.70
2018-07-04T15:31:17.412Z,28.10
2018-07-04T15:33:58.214Z,28.50
2018-07-04T15:36:38.130Z,28.70
2018-07-04T15:39:21.750Z,28.80
2018-07-04T15:42:01.563Z,28.90
2018-07-04T15:44:42.224Z,28.40
2018-07-04T15:47:22.184Z,28.40
2018-07-04T15:50:02.041Z,28.40
2018-07-04T15:52:41.742Z,28.40
2018-07-04T15:55:21.558Z,28.30
2018-07-04T15:58:01.428Z,28.40
2018-07-04T16:00:41.177Z,28.40
2018-07-04T16:03:21.042Z,28.20
2018-07-04T16:08:34.756Z,28.20
2018-07-04T16:11:14.679Z,28.00
2018-07-04T16:13:54.665Z,27.90
2018-07-04T16:16:34.536Z,27.90
2018-07-04T16:19:15.352Z,28.00
2018-07-04T16:21:55.212Z,28.20
2018-07-04T16:24:36.215Z,28.60
2018-07-04T16:27:16.181Z,29.50
2018-07-04T16:29:56.997Z,30.40
2018-07-04T16:32:36.852Z,31.30
2018-07-04T16:35:16.580Z,31.70
2018-07-04T16:37:56.589Z,32.00
2018-07-04T16:40:36.547Z,32.00
2018-07-04T16:43:18.572Z,31.40
2018-07-04T16:45:59.434Z,31.20
2018-07-04T16:48:39.316Z,31.00
2018-07-04T16:51:18.996Z,31.00
2018-07-04T16:53:58.733Z,31.50
2018-07-04T16:56:38.551Z,31.80
2018-07-04T16:59:20.285Z,32.00
2018-07-04T17:02:00.207Z,31.90
2018-07-04T17:04:41.038Z,32.30
2018-07-04T17:07:20.775Z,32.20
2018-07-04T17:10:00.769Z,31.50
2018-07-04T17:12:40.538Z,32.00
2018-07-04T17:15:20.463Z,32.40
2018-07-04T17:18:00.105Z,32.60
2018-07-04T17:20:39.788Z,32.60
2018-07-04T17:23:20.440Z,32.70
2018-07-04T17:26:00.174Z,32.60
2018-07-04T17:28:40.103Z,32.50
2018-07-04T17:31:22.031Z,32.30
2018-07-04T17:34:01.998Z,32.50
2018-07-04T17:39:15.463Z,32.00
2018-07-04T17:41:55.161Z,31.30
2018-07-04T17:44:35.127Z,31.10
2018-07-04T17:47:14.815Z,30.70
2018-07-04T17:49:56.192Z,30.10
2018-07-04T17:52:35.933Z,29.80
2018-07-04T17:55:15.714Z,29.70
2018-07-04T17:57:59.364Z,29.70
2018-07-04T18:00:39.115Z,29.80
2018-07-04T18:03:18.965Z,29.50
2018-07-04T18:05:58.944Z,29.20
2018-07-04T18:08:38.866Z,28.80
2018-07-04T18:11:18.630Z,28.70
2018-07-04T18:13:58.530Z,28.30
2018-07-04T18:16:40.347Z,28.00
2018-07-04T18:19:20.211Z,28.10
2018-07-04T18:22:01.173Z,28.20
2018-07-04T18:24:41.002Z,27.80
2018-07-04T18:27:20.832Z,27.50
2018-07-04T18:30:00.654Z,27.20
2018-07-04T18:35:14.254Z,26.50
2018-07-04T18:37:54.035Z,26.20
2018-07-04T18:40:33.990Z,25.90
2018-07-04T18:43:14.914Z,25.50
2018-07-04T18:45:54.696Z,25.30
2018-07-04T18:48:34.552Z,25.00
2018-07-04T18:51:14.325Z,24.80
2018-07-04T18:53:54.137Z,24.60
2018-07-04T18:56:34.026Z,24.30
2018-07-04T18:59:13.721Z,24.00
2018-07-04T19:01:54.546Z,23.70
2018-07-04T19:04:34.467Z,23.50
2018-07-04T19:07:14.288Z,23.30
2018-07-04T19:09:54.062Z,23.20
2018-07-04T19:12:33.788Z,23.20
2018-07-04T19:15:13.617Z,22.90
2018-07-04T19:17:54.555Z,22.70
2018-07-04T19:20:34.391Z,22.50
2018-07-04T19:23:14.170Z,22.50
2018-07-04T19:25:53.865Z,22.40
2018-07-04T19:28:33.699Z,22.30
2018-07-04T19:31:13.538Z,22.10
2018-07-04T19:33:53.323Z,21.90
2018-07-04T19:36:33.063Z,21.70
2018-07-04T19:39:12.990Z,21.60
2018-07-04T19:41:52.933Z,21.50
2018-07-04T19:44:32.686Z,21.50
2018-07-04T19:47:12.558Z,21.50
2018-07-04T19:49:52.476Z,21.30
2018-07-04T19:52:32.150Z,21.30
2018-07-04T19:55:12.090Z,21.30
2018-07-04T19:57:51.899Z,21.20
2018-07-04T20:00:31.821Z,21.00
2018-07-04T20:03:11.703Z,20.90
2018-07-04T20:05:51.535Z,20.70
2018-07-04T20:08:31.222Z,20.60
2018-07-04T20:11:11.042Z,20.70
2018-07-04T20:13:51.267Z,20.60
2018-07-04T20:16:31.031Z,20.50
2018-07-04T20:19:10.838Z,20.60
2018-07-04T20:21:50.855Z,20.60
2018-07-04T20:24:30.773Z,20.60
2018-07-04T20:27:10.446Z,20.50
2018-07-04T20:29:50.102Z,20.50
2018-07-04T20:32:30.126Z,20.40
2018-07-04T20:35:09.962Z,20.30
2018-07-04T20:37:49.884Z,20.30
2018-07-04T20:40:30.722Z,20.20
2018-07-04T20:43:10.692Z,20.20
2018-07-04T20:45:50.366Z,20.20
2018-07-04T20:48:30.187Z,20.10
2018-07-04T20:51:10.061Z,20.10
2018-07-04T20:53:51.981Z,20.00
2018-07-04T20:56:31.775Z,19.80
2018-07-04T20:59:11.453Z,19.80
2018-07-04T21:01:51.242Z,19.80
2018-07-04T21:04:31.174Z,19.80
2018-07-04T21:07:10.924Z,19.70
2018-07-04T21:09:50.800Z,19.60
2018-07-04T21:12:30.383Z,19.60
2018-07-04T21:15:10.367Z,19.60
2018-07-04T21:17:50.291Z,19.70
2018-07-04T21:20:30.122Z,19.60
2018-07-04T21:23:09.982Z,19.40
2018-07-04T21:25:49.811Z,19.30
2018-07-04T21:28:29.810Z,19.30
2018-07-04T21:31:09.545Z,19.20
2018-07-04T21:33:49.407Z,19.10
2018-07-04T21:36:29.138Z,19.00
2018-07-04T21:39:09.037Z,18.90
2018-07-04T21:41:48.699Z,18.90
2018-07-04T21:44:28.489Z,18.90
2018-07-04T21:47:08.400Z,19.10
2018-07-04T21:49:48.308Z,19.00
2018-07-04T21:52:28.216Z,19.10
2018-07-04T21:55:08.121Z,19.10
2018-07-04T21:57:48.015Z,19.10
2018-07-04T22:00:27.906Z,19.10
2018-07-04T22:03:07.729Z,19.20
2018-07-04T22:05:47.632Z,19.10
2018-07-04T22:08:27.465Z,19.00
2018-07-04T22:11:07.202Z,18.90
2018-07-04T22:13:47.164Z,18.90
2018-07-04T22:16:26.951Z,18.90
2018-07-04T22:19:06.746Z,18.80
2018-07-04T22:21:48.531Z,18.80
2018-07-04T22:24:28.583Z,18.80
2018-07-04T22:27:08.202Z,18.70
2018-07-04T22:29:48.015Z,18.60
2018-07-04T22:32:27.914Z,18.60
2018-07-04T22:35:07.746Z,18.50
2018-07-04T22:37:47.554Z,18.50
2018-07-04T22:40:27.374Z,18.60
2018-07-04T22:43:07.099Z,18.60
2018-07-04T22:45:46.949Z,18.70
2018-07-04T22:48:26.782Z,18.70
2018-07-04T22:51:06.761Z,18.70
2018-07-04T22:53:46.635Z,18.60
2018-07-04T22:56:26.387Z,18.60
2018-07-04T22:59:06.191Z,18.60
2018-07-04T23:01:46.104Z,18.60
2018-07-04T23:04:26.000Z,18.50
2018-07-04T23:07:05.598Z,18.40
2018-07-04T23:09:45.483Z,18.30
2018-07-04T23:14:59.191Z,18.20
2018-07-04T23:17:38.974Z,18.20
2018-07-04T23:20:24.519Z,18.30
2018-07-04T23:23:04.273Z,18.20
2018-07-04T23:25:44.024Z,18.10
2018-07-04T23:28:23.924Z,18.10
2018-07-04T23:31:03.814Z,18.10
2018-07-04T23:33:43.615Z,18.00
2018-07-04T23:36:23.533Z,17.90
2018-07-04T23:39:03.929Z,17.90
2018-07-04T23:41:44.567Z,17.90
2018-07-04T23:44:24.534Z,17.90
2018-07-04T23:47:04.504Z,18.00
2018-07-04T23:49:44.268Z,18.00
2018-07-04T23:52:24.060Z,18.00
2018-07-04T23:55:04.120Z,18.10
2018-07-04T23:57:44.913Z,18.20
